Pittsfield Township, Michigan
Current Conditions -  °F | °C
As of 6:53 AM on Saturday 25 Oct 2014 (Local Time) from KARB Reporting Station
Haze Haze  
Wind Chill: 43°   Ceiling: 5000
Heat Index: 45°   Visibility: 2mi
Dew Point: 42°   Wind: 5mph
Humidity: 90%   Direction: 250°WSW
Pressure: 29.86"   Gusts: NA
Location:  42.2641°N, 83.7197°W
Report Text: KARB 251053Z AUTO 25004KT 2SM BR OVC050 07/06 A2986 RMK AO2 SLP113 T00720056
Loading
Personal Weather Stations






























Interactive Weather Map
Tropical Storm Tracking
New forecast layout! Learn more

10-Day Weather Forecast

Advertisements
Track Severe Weather on mobile